Time;durP1;ratioP1;P1;durP2;ratioP2;P2;SDS_P1;SDS_P2;PMS_P1;PMS_P2;Temp;Humidity;BMP_temperature;BMP_pressure;BME280_temperature;BME280_humidity;BME280_pressure;Samples;Min_cycle;Max_cycle;Signal;HPM_P1;HPM_P2
2023/10/16 00:02:24;;;;;;;14.05;6.82;;;;;;;15.94;81.91;99719.72;5032941;28;20506;-72
2023/10/16 00:04:51;;;;;;;11.15;6.90;;;;;;;16.01;81.54;99718.00;5049706;28;20498;-73
2023/10/16 00:07:21;;;;;;;15.00;7.47;;;;;;;15.87;82.34;99704.94;5049849;28;20033;-71
2023/10/16 00:09:53;;;;;;;15.23;6.93;;;;;;;15.91;82.25;99737.06;5049849;28;20119;-71
2023/10/16 00:12:19;;;;;;;13.07;7.63;;;;;;;15.76;82.87;99725.69;5049744;28;20124;-71
2023/10/16 00:14:46;;;;;;;16.17;7.00;;;;;;;15.79;82.91;99743.09;5049667;28;20108;-74
2023/10/16 00:17:13;;;;;;;12.50;7.35;;;;;;;15.66;82.66;99747.34;5049485;28;20158;-72
2023/10/16 00:19:39;;;;;;;14.65;7.70;;;;;;;15.68;82.54;99743.88;5033800;28;20049;-72
2023/10/16 00:22:18;;;;;;;17.90;8.77;;;;;;;15.81;82.40;99754.34;5012228;28;20079;-72
2023/10/16 00:24:46;;;;;;;14.55;7.30;;;;;;;15.93;81.17;99758.78;5012157;28;20044;-72
2023/10/16 00:27:15;;;;;;;16.35;7.78;;;;;;;16.01;80.65;99764.88;5012131;28;20484;-72
2023/10/16 00:29:42;;;;;;;16.67;7.90;;;;;;;16.06;80.03;99773.56;5027346;28;20080;-76
2023/10/16 00:32:07;;;;;;;14.05;6.85;;;;;;;15.93;80.83;99780.47;5011816;28;20326;-74
2023/10/16 00:34:34;;;;;;;22.02;8.95;;;;;;;15.85;81.09;99775.22;5011910;28;20443;-72
2023/10/16 00:37:01;;;;;;;15.93;7.47;;;;;;;15.95;80.75;99783.06;5011995;28;20030;-75
2023/10/16 00:39:28;;;;;;;15.55;7.00;;;;;;;15.94;80.61;99776.16;5012220;28;20049;-74
2023/10/16 00:41:57;;;;;;;15.85;7.63;;;;;;;15.66;81.64;99775.97;5012267;28;20565;-70
2023/10/16 00:44:23;;;;;;;19.15;7.68;;;;;;;15.48;81.20;99741.19;5011712;28;20026;-72
2023/10/16 00:46:52;;;;;;;13.73;6.90;;;;;;;15.62;80.47;99745.59;5009398;28;20041;-72
2023/10/16 00:49:18;;;;;;;15.98;8.23;;;;;;;15.84;82.93;99781.28;5012206;28;20044;-71
2023/10/16 00:51:45;;;;;;;15.88;7.90;;;;;;;15.91;84.95;99790.00;5011813;28;20030;-72
2023/10/16 00:54:19;;;;;;;15.60;7.97;;;;;;;15.93;82.70;99787.41;5011956;28;20053;-75
2023/10/16 00:56:46;;;;;;;12.85;7.80;;;;;;;15.94;85.73;99784.81;5011733;28;20037;-72
2023/10/16 00:59:23;;;;;;;14.57;8.40;;;;;;;15.97;84.83;99787.41;5026563;28;20079;-71
2023/10/16 01:01:52;;;;;;;11.13;7.30;;;;;;;15.93;83.90;99785.66;5011735;28;20025;-73
2023/10/16 01:04:19;;;;;;;12.65;8.27;;;;;;;15.86;86.82;99786.50;5026344;28;20030;-72
2023/10/16 01:06:45;;;;;;;18.77;7.82;;;;;;;15.78;85.69;99796.84;5011672;28;20034;-75
2023/10/16 01:12:07;;;;;;;14.55;8.48;;;;;;;15.27;85.29;99799.16;5008904;28;20030;-73
2023/10/16 01:14:35;;;;;;;19.33;8.90;;;;;;;15.42;84.27;99815.75;5008964;28;20615;-72
2023/10/16 01:17:02;;;;;;;14.30;8.45;;;;;;;15.42;84.26;99821.78;5008946;28;20034;-71
2023/10/16 01:19:29;;;;;;;16.73;9.10;;;;;;;15.44;84.24;99832.19;4992327;28;20123;-71
2023/10/16 01:21:54;;;;;;;15.45;8.05;;;;;;;15.16;84.62;99837.22;5003848;28;20477;-74
2023/10/16 01:24:21;;;;;;;17.60;7.90;;;;;;;15.14;85.48;99829.41;4989037;28;20515;-73
2023/10/16 01:26:48;;;;;;;13.77;7.85;;;;;;;15.12;85.65;99831.13;4988834;28;20100;-70
2023/10/16 01:29:15;;;;;;;14.10;7.30;;;;;;;14.94;86.53;99826.66;4989005;28;20125;-70
2023/10/16 01:31:44;;;;;;;15.18;7.63;;;;;;;14.82;88.01;99840.38;4989091;28;20382;-76
2023/10/16 01:34:13;;;;;;;15.82;7.57;;;;;;;14.68;88.99;99837.66;4982060;28;20165;-75
2023/10/16 01:36:45;;;;;;;10.02;6.78;;;;;;;14.61;90.18;99850.53;4985790;28;20054;-76
2023/10/16 01:39:47;;;;;;;12.57;7.55;;;;;;;14.72;89.86;99857.59;4989125;28;20030;-73
2023/10/16 01:42:01;;;;;;;13.27;7.70;;;;;;;14.70;90.50;99863.66;4988520;28;20054;-73
2023/10/16 01:44:28;;;;;;;11.85;7.28;;;;;;;14.12;93.06;99866.41;4988804;28;20034;-72
2023/10/16 01:46:54;;;;;;;15.52;7.57;;;;;;;13.74;94.88;99891.88;4988725;28;20039;-71
2023/10/16 01:49:19;;;;;;;16.75;7.00;;;;;;;13.73;96.34;99895.31;4993718;28;20416;-75
2023/10/16 01:51:45;;;;;;;12.23;7.70;;;;;;;13.76;97.56;99891.88;5026064;28;20113;-74
2023/10/16 01:54:13;;;;;;;15.82;7.38;;;;;;;13.82;97.47;99888.50;5010817;28;20052;-72
2023/10/16 01:56:38;;;;;;;12.10;8.50;;;;;;;14.06;96.25;99886.25;5025866;28;20029;-71
2023/10/16 01:59:06;;;;;;;13.50;8.20;;;;;;;14.24;95.23;99889.94;5010420;28;20079;-73
2023/10/16 02:01:31;;;;;;;11.52;7.30;;;;;;;14.49;93.45;99893.72;5009470;28;20033;-71
2023/10/16 02:03:57;;;;;;;11.43;7.75;;;;;;;14.55;92.99;99898.97;5010264;28;20033;-75
2023/10/16 02:06:25;;;;;;;12.88;7.60;;;;;;;14.71;91.94;99905.22;5010531;28;20028;-71
2023/10/16 02:08:51;;;;;;;10.82;7.20;;;;;;;14.79;92.09;99913.13;5010768;28;20089;-70
2023/10/16 02:11:16;;;;;;;13.40;8.15;;;;;;;14.83;92.23;99912.28;5010546;28;20030;-74
2023/10/16 02:13:43;;;;;;;14.52;7.68;;;;;;;14.96;91.70;99918.47;5025500;28;20026;-74
2023/10/16 02:16:10;;;;;;;10.18;7.57;;;;;;;15.10;91.59;99922.94;5010380;28;20080;-73
2023/10/16 02:18:37;;;;;;;12.85;8.32;;;;;;;15.17;91.04;99925.63;5010294;28;20052;-71
2023/10/16 02:21:04;;;;;;;13.65;8.02;;;;;;;15.22;90.33;99923.06;5025382;28;20049;-71
2023/10/16 02:23:31;;;;;;;24.88;8.40;;;;;;;15.28;89.79;99924.88;5010399;28;20049;-71
2023/10/16 02:26:01;;;;;;;12.68;7.63;;;;;;;15.28;89.16;99915.31;5010413;28;20448;-71
2023/10/16 02:28:31;;;;;;;12.57;8.40;;;;;;;15.43;88.13;99934.53;5010459;28;20034;-70
2023/10/16 02:31:05;;;;;;;15.43;8.05;;;;;;;15.53;87.33;99937.19;5010302;28;20551;-71
2023/10/16 02:33:35;;;;;;;14.23;8.57;;;;;;;15.59;86.47;99945.91;5010039;28;20607;-72
2023/10/16 02:36:02;;;;;;;13.05;7.10;;;;;;;15.72;85.68;99967.72;5009994;28;20026;-72
2023/10/16 02:38:28;;;;;;;10.48;7.10;;;;;;;15.82;85.01;99973.00;5025208;28;20028;-71
2023/10/16 02:41:00;;;;;;;12.50;7.10;;;;;;;15.80;84.92;99960.81;5010305;28;20030;-71
2023/10/16 02:43:25;;;;;;;13.30;8.73;;;;;;;15.89;84.69;99968.75;5009889;28;20156;-74
2023/10/16 02:45:54;;;;;;;13.85;7.70;;;;;;;15.88;84.52;99968.75;5010259;28;20030;-71
2023/10/16 02:48:20;;;;;;;15.52;8.02;;;;;;;15.80;84.50;99960.81;5010272;28;20033;-71
2023/10/16 02:50:56;;;;;;;11.70;7.78;;;;;;;15.77;84.65;99961.66;5025315;28;20550;-75
2023/10/16 02:53:24;;;;;;;14.13;8.07;;;;;;;15.57;85.25;99971.91;5009878;28;20081;-77
2023/10/16 02:55:57;;;;;;;10.25;7.35;;;;;;;15.52;85.77;99969.28;5024791;28;20030;-70
2023/10/16 02:58:26;;;;;;;12.02;7.80;;;;;;;15.52;85.41;99965.81;5010121;28;20034;-71
2023/10/16 03:00:55;;;;;;;12.32;8.25;;;;;;;15.61;85.10;99973.69;5010212;28;20022;-76
2023/10/16 03:03:26;;;;;;;11.43;7.65;;;;;;;15.63;84.90;99976.31;5009897;28;20455;-74
2023/10/16 03:05:52;;;;;;;12.10;6.97;;;;;;;15.77;85.10;99981.63;5010287;28;20059;-72
2023/10/16 03:08:18;;;;;;;11.20;7.88;;;;;;;15.86;83.64;99994.72;5009866;28;20025;-72
2023/10/16 03:10:45;;;;;;;11.05;7.38;;;;;;;15.75;83.86;100005.06;5010217;28;20034;-74
2023/10/16 03:13:13;;;;;;;10.32;7.05;;;;;;;15.58;83.54;100004.03;5011014;28;20100;-71
2023/10/16 03:15:42;;;;;;;17.60;7.90;;;;;;;15.60;83.57;100016.19;5028657;28;20126;-74
2023/10/16 03:18:16;;;;;;;10.98;6.50;;;;;;;15.71;83.00;100011.06;5013593;28;20026;-74
2023/10/16 03:20:44;;;;;;;14.68;6.80;;;;;;;15.70;83.42;100019.72;5013282;28;20030;-71
2023/10/16 03:23:12;;;;;;;16.75;6.78;;;;;;;15.67;83.97;100014.50;5013419;28;20029;-75
2023/10/16 03:28:07;;;;;;;14.00;7.13;;;;;;;15.70;83.81;100006.72;5013236;28;20030;-73
2023/10/16 03:30:32;;;;;;;13.35;6.70;;;;;;;15.71;83.51;99995.44;5028615;28;20093;-72
2023/10/16 03:32:59;;;;;;;15.30;6.68;;;;;;;15.57;83.39;99984.06;5012979;28;20109;-72
2023/10/16 03:35:30;;;;;;;11.05;6.68;;;;;;;15.75;82.76;100030.19;5013121;28;20484;-71
2023/10/16 03:37:59;;;;;;;14.55;7.53;;;;;;;15.87;81.33;100032.06;5026482;28;20080;-75
2023/10/16 03:40:25;;;;;;;18.13;6.38;;;;;;;15.87;81.49;100030.31;5012707;28;20058;-71
2023/10/16 03:42:51;;;;;;;13.85;5.65;;;;;;;15.89;79.61;100031.22;5013375;28;20072;-72
2023/10/16 03:45:20;;;;;;;11.80;6.38;;;;;;;15.94;79.41;100052.94;5012746;28;20034;-72
2023/10/16 03:47:57;;;;;;;10.73;5.03;;;;;;;15.73;79.13;100061.41;5012625;28;20038;-71
2023/10/16 03:50:34;;;;;;;13.98;4.82;;;;;;;15.33;79.52;100046.28;5012890;28;20061;-70
2023/10/16 03:53:02;;;;;;;11.40;4.90;;;;;;;15.30;80.55;100076.56;5012533;28;20117;-71
2023/10/16 03:55:31;;;;;;;12.70;4.57;;;;;;;15.24;80.93;100053.09;5027838;28;20049;-72
2023/10/16 03:57:57;;;;;;;9.55;4.47;;;;;;;15.26;80.33;100036.66;5012721;28;20029;-71
2023/10/16 04:00:27;;;;;;;12.23;4.43;;;;;;;15.44;80.51;100058.50;5012525;28;20400;-72
2023/10/16 04:02:55;;;;;;;11.95;4.55;;;;;;;15.71;79.58;100080.47;5012453;28;20105;-76
2023/10/16 04:05:30;;;;;;;7.65;4.47;;;;;;;15.58;79.70;100056.06;5012581;28;20034;-71
2023/10/16 04:07:56;;;;;;;12.63;4.50;;;;;;;15.76;78.68;100099.59;5027794;28;20061;-71
2023/10/16 04:10:27;;;;;;;7.55;4.00;;;;;;;15.78;78.33;100096.16;5009016;28;20044;-73
2023/10/16 04:12:54;;;;;;;7.93;4.22;;;;;;;15.75;78.02;100096.16;5007067;28;20040;-72
2023/10/16 04:18:05;;;;;;;13.68;5.13;;;;;;;15.68;79.60;100096.94;5007231;28;20073;-72
2023/10/16 04:20:43;;;;;;;18.38;4.75;;;;;;;15.58;80.15;100076.88;5008848;28;20080;-75
2023/10/16 04:23:29;;;;;;;24.35;6.32;;;;;;;15.42;79.88;100057.66;5009432;28;20096;-73
2023/10/16 04:29:22;;;;;;;13.52;5.07;;;;;;;15.77;77.65;100124.78;5009660;28;20085;-71
2023/10/16 04:31:44;;;;;;;15.10;5.20;;;;;;;15.58;77.77;100139.34;5009419;28;20026;-72
2023/10/16 04:34:31;;;;;;;10.25;4.10;;;;;;;15.13;76.73;100115.41;5008464;28;20041;-70
2023/10/16 04:53:08;;;;;;;13.98;6.55;;;;;;;15.11;75.57;100179.50;5027087;28;20503;-72
2023/10/16 05:11:32;;;;;;;12.52;2.90;;;;;;;14.51;69.89;100179.44;5010639;28;20546;-73
2023/10/16 05:17:06;;;;;;;10.63;2.38;;;;;;;14.80;68.83;100212.84;5002354;28;20436;-72
2023/10/16 05:22:03;;;;;;;6.03;2.80;;;;;;;14.94;68.64;100229.53;5002288;28;20084;-69
2023/10/16 06:14:12;;;;;;;5.22;2.72;;;;;;;13.90;88.02;100333.22;5003738;28;20049;-73
2023/10/16 06:16:42;;;;;;;5.00;2.63;;;;;;;14.01;87.10;100357.69;5004329;28;20022;-73
2023/10/16 06:19:16;;;;;;;4.65;2.25;;;;;;;13.72;83.81;100312.94;5002796;28;20509;-74
2023/10/16 06:21:54;;;;;;;7.80;2.30;;;;;;;14.10;85.66;100357.00;4999887;28;20037;-73
2023/10/16 06:26:55;;;;;;;7.03;2.30;;;;;;;14.19;83.42;100382.28;5008264;28;20610;-76
2023/10/16 06:29:21;;;;;;;4.15;2.50;;;;;;;14.15;84.17;100375.28;5001901;28;20120;-73
2023/10/16 06:31:49;;;;;;;6.28;2.50;;;;;;;14.13;80.49;100361.38;5003894;28;20112;-74
2023/10/16 06:34:15;;;;;;;5.50;2.50;;;;;;;14.32;82.54;100389.47;5009158;28;20022;-73
2023/10/16 06:36:44;;;;;;;6.55;2.63;;;;;;;14.29;80.44;100398.94;5009244;28;20723;-71
2023/10/16 06:39:22;;;;;;;14.90;2.90;;;;;;;14.36;79.18;100406.00;5009081;28;20432;-71
2023/10/16 06:42:02;;;;;;;7.63;3.60;;;;;;;14.44;78.84;100416.53;5001276;28;20472;-70
2023/10/16 06:44:28;;;;;;;8.70;3.53;;;;;;;14.32;78.71;100423.25;5006361;28;20019;-71
2023/10/16 06:47:00;;;;;;;6.43;3.30;;;;;;;14.22;77.55;100388.41;5009315;28;20033;-72
2023/10/16 06:49:38;;;;;;;6.72;2.40;;;;;;;14.44;75.92;100422.59;5011787;28;20026;-74
2023/10/16 06:52:12;;;;;;;11.80;2.80;;;;;;;14.54;75.66;100452.25;5013483;28;20026;-70
2023/10/16 06:54:39;;;;;;;2.78;1.60;;;;;;;14.52;67.16;100439.22;5013563;28;20423;-71
2023/10/16 06:57:12;;;;;;;6.10;1.75;;;;;;;14.62;64.86;100439.44;5013312;28;20037;-73
2023/10/16 06:59:45;;;;;;;7.53;1.30;;;;;;;14.55;55.90;100448.81;5011642;28;20092;-72
2023/10/16 07:02:21;;;;;;;4.15;1.30;;;;;;;14.54;56.76;100454.84;5012111;28;20485;-73
2023/10/16 07:04:47;;;;;;;5.85;1.15;;;;;;;14.55;52.90;100459.19;5011674;28;20029;-74
2023/10/16 07:07:16;;;;;;;3.88;1.40;;;;;;;14.47;54.52;100477.22;5014058;28;20022;-74
2023/10/16 07:09:53;;;;;;;8.20;1.55;;;;;;;14.45;52.85;100485.84;5011802;28;20030;-73
2023/10/16 07:12:19;;;;;;;6.53;1.38;;;;;;;14.26;52.89;100449.09;5022419;28;20077;-76
2023/10/16 07:15:01;;;;;;;9.43;1.67;;;;;;;14.41;50.99;100492.69;5012917;28;20033;-73
2023/10/16 07:17:30;;;;;;;4.88;1.30;;;;;;;14.46;52.27;100496.25;5013073;28;20117;-71
2023/10/16 07:19:59;;;;;;;4.63;1.20;;;;;;;14.39;48.68;100495.25;5004162;28;20451;-74
2023/10/16 07:22:32;;;;;;;6.25;1.42;;;;;;;14.27;49.51;100462.94;5011851;28;20068;-71
2023/10/16 07:25:23;;;;;;;9.73;2.50;;;;;;;14.63;48.88;100499.22;5012772;28;20034;-72
2023/10/16 07:27:49;;;;;;;5.68;1.60;;;;;;;14.60;47.23;100499.13;5011611;28;20117;-73
2023/10/16 07:30:24;;;;;;;5.43;1.10;;;;;;;14.53;46.67;100503.34;5012577;28;20117;-74
2023/10/16 07:32:49;;;;;;;6.68;1.40;;;;;;;14.58;47.04;100511.25;5012518;28;20395;-75
2023/10/16 07:35:18;;;;;;;3.20;1.30;;;;;;;14.65;46.42;100507.94;5012510;28;20037;-73
2023/10/16 07:37:48;;;;;;;2.17;1.20;;;;;;;14.49;44.64;100475.56;5011150;28;20156;-75
2023/10/16 07:40:20;;;;;;;5.82;1.30;;;;;;;14.78;47.03;100519.47;5012689;28;20033;-71
2023/10/16 07:42:48;;;;;;;3.35;1.35;;;;;;;14.90;45.11;100530.97;5003856;28;20493;-73
2023/10/16 07:45:15;;;;;;;5.75;1.15;;;;;;;14.94;44.85;100537.97;5011989;28;20022;-71
2023/10/16 07:47:40;;;;;;;9.05;1.52;;;;;;;14.98;45.16;100538.06;5012419;28;20034;-76
2023/10/16 07:50:07;;;;;;;3.47;1.80;;;;;;;15.03;44.33;100544.22;5028155;28;20349;-75
2023/10/16 07:52:34;;;;;;;4.90;1.20;;;;;;;15.06;43.03;100542.56;5012578;28;20030;-71
2023/10/16 07:55:02;;;;;;;3.78;1.38;;;;;;;15.02;43.18;100546.81;5006841;28;20046;-72
2023/10/16 07:57:27;;;;;;;6.53;1.30;;;;;;;14.96;43.87;100531.09;5010731;28;20034;-74
2023/10/16 07:59:54;;;;;;;9.48;1.48;;;;;;;15.23;43.84;100558.47;5011522;28;20036;-73
2023/10/16 08:02:20;;;;;;;3.67;1.20;;;;;;;15.31;43.81;100555.16;5011925;28;20080;-72
2023/10/16 08:04:51;;;;;;;3.40;1.20;;;;;;;15.16;42.47;100521.94;5012033;28;20049;-73
2023/10/16 08:07:40;;;;;;;10.23;1.98;;;;;;;15.42;42.08;100559.72;5012939;28;20026;-72
2023/10/16 08:12:50;;;;;;;5.93;2.13;;;;;;;15.33;42.45;100558.69;5011595;28;20069;-71
2023/10/16 08:15:16;;;;;;;9.40;1.50;;;;;;;15.45;42.79;100557.16;5012048;28;20061;-72
2023/10/16 08:17:44;;;;;;;6.32;1.50;;;;;;;15.40;40.43;100562.25;5011989;28;20088;-74
2023/10/16 08:20:17;;;;;;;6.13;1.45;;;;;;;15.41;40.26;100552.75;5011651;28;20025;-73
2023/10/16 08:22:46;;;;;;;6.15;1.40;;;;;;;15.47;40.07;100558.06;5004891;28;20048;-77
2023/10/16 08:25:30;;;;;;;2.35;1.50;;;;;;;15.47;39.33;100556.31;5026723;28;20038;-72
2023/10/16 08:27:58;;;;;;;4.32;1.35;;;;;;;15.39;39.34;100549.22;5008377;28;20036;-72
2023/10/16 08:33:07;;;;;;;4.70;1.90;;;;;;;15.59;40.10;100579.09;5007037;28;20483;-72
2023/10/16 08:35:43;;;;;;;4.30;1.70;;;;;;;15.44;40.16;100539.78;5011248;28;20072;-73
2023/10/16 08:38:20;;;;;;;9.18;1.42;;;;;;;15.72;37.84;100595.81;5012245;28;20040;-75
2023/10/16 08:40:57;;;;;;;13.82;1.77;;;;;;;15.67;38.75;100593.13;5011825;28;20038;-72
2023/10/16 08:43:39;;;;;;;4.20;1.50;;;;;;;15.76;39.55;100595.00;5026503;28;20030;-71
2023/10/16 08:46:18;;;;;;;5.18;1.40;;;;;;;15.38;36.21;100532.75;5007645;28;20447;-72
2023/10/16 08:48:44;;;;;;;4.55;1.30;;;;;;;15.68;36.46;100600.06;5007395;28;20030;-73
2023/10/16 08:51:10;;;;;;;5.93;1.67;;;;;;;15.59;36.41;100609.44;5011021;28;20069;-72
2023/10/16 08:53:36;;;;;;;5.07;1.23;;;;;;;15.50;37.13;100618.84;5011186;28;20037;-72
2023/10/16 08:56:07;;;;;;;7.97;1.73;;;;;;;15.36;36.92;100626.38;5011346;28;20053;-73
2023/10/16 08:58:49;;;;;;;5.60;1.40;;;;;;;15.31;37.74;100625.38;5009481;28;20034;-73
2023/10/16 09:01:16;;;;;;;4.95;1.38;;;;;;;15.33;38.96;100630.66;5011722;28;20056;-73
2023/10/16 09:03:50;;;;;;;5.55;1.20;;;;;;;15.35;39.40;100637.63;5011028;28;20615;-72
2023/10/16 09:06:22;;;;;;;6.72;1.70;;;;;;;15.40;38.95;100647.25;5011616;28;20030;-72
2023/10/16 09:08:54;;;;;;;2.78;1.50;;;;;;;15.26;38.47;100645.22;5020587;28;20404;-73
2023/10/16 09:11:20;;;;;;;5.35;1.50;;;;;;;15.36;38.91;100638.50;5010800;28;20029;-71
2023/10/16 09:13:51;;;;;;;9.63;2.03;;;;;;;15.40;39.01;100653.31;5010732;28;20037;-71
2023/10/16 09:16:23;;;;;;;2.83;1.40;;;;;;;15.40;39.63;100658.50;5010880;28;20032;-72
2023/10/16 09:18:53;;;;;;;4.85;1.40;;;;;;;15.48;39.80;100659.56;5007197;28;20030;-75
2023/10/16 09:21:27;;;;;;;3.97;1.80;;;;;;;15.56;39.78;100664.03;5010595;28;20052;-72
2023/10/16 09:23:58;;;;;;;11.07;2.17;;;;;;;15.56;39.85;100674.44;5010505;28;20042;-73
2023/10/16 09:26:25;;;;;;;4.65;1.65;;;;;;;15.51;40.00;100669.16;5009262;28;20080;-71
2023/10/16 09:29:15;;;;;;;4.70;1.38;;;;;;;15.56;39.11;100669.25;5021221;28;20048;-72
2023/10/16 09:31:44;;;;;;;4.88;1.42;;;;;;;15.53;39.29;100673.53;5008130;28;20057;-73
2023/10/16 09:34:12;;;;;;;1.98;1.13;;;;;;;15.47;39.37;100649.13;5010248;28;20492;-71
2023/10/16 09:36:38;;;;;;;7.57;1.58;;;;;;;15.49;40.02;100663.06;5010456;28;20555;-72
2023/10/16 09:39:16;;;;;;;2.85;1.27;;;;;;;15.48;39.63;100667.38;5010281;28;20524;-71
2023/10/16 09:41:46;;;;;;;2.88;1.40;;;;;;;15.42;39.68;100675.03;5009938;28;20507;-75
2023/10/16 09:44:22;;;;;;;1.63;1.20;;;;;;;15.35;40.44;100657.53;5009737;28;20036;-70
2023/10/16 09:46:53;;;;;;;3.28;1.40;;;;;;;15.29;40.42;100637.50;5010058;28;20037;-71
2023/10/16 09:49:24;;;;;;;7.85;1.50;;;;;;;15.56;41.09;100667.50;5011021;28;20030;-71
2023/10/16 09:52:03;;;;;;;8.25;1.48;;;;;;;15.66;40.03;100660.75;5010164;28;20029;-71
2023/10/16 09:54:29;;;;;;;;;;;;;;;15.64;39.60;100668.53;5008867;28;20049;-77
2023/10/16 09:56:59;;;;;;;7.50;2.13;;;;;;;15.67;41.71;100660.78;5010117;28;20064;-74
2023/10/16 09:59:33;;;;;;;13.50;2.08;;;;;;;15.77;39.97;100650.56;5032039;28;20038;-72
2023/10/16 10:02:06;;;;;;;5.07;1.40;;;;;;;15.88;39.55;100659.47;5010715;28;20041;-74
2023/10/16 10:04:33;;;;;;;5.78;1.50;;;;;;;15.97;38.67;100653.56;5025254;28;20034;-73
2023/10/16 10:07:02;;;;;;;6.88;1.67;;;;;;;16.17;41.28;100653.91;5010428;28;20184;-71
2023/10/16 10:09:42;;;;;;;5.30;1.70;;;;;;;16.25;39.67;100659.22;5008857;28;20021;-73
2023/10/16 10:12:56;;;;;;;4.60;1.48;;;;;;;16.31;40.09;100667.16;5003492;28;20038;-73
2023/10/16 10:15:29;;;;;;;9.60;1.58;;;;;;;16.32;38.58;100663.69;5006698;28;20121;-72
2023/10/16 10:17:58;;;;;;;3.75;1.60;;;;;;;16.35;38.88;100661.16;5007101;28;20578;-74
2023/10/16 10:20:31;;;;;;;5.95;1.60;;;;;;;16.38;38.15;100657.72;5007069;28;20496;-76
2023/10/16 10:23:04;;;;;;;4.35;1.65;;;;;;;16.49;40.08;100669.19;5008664;28;20044;-74
2023/10/16 10:25:37;;;;;;;5.47;1.50;;;;;;;16.50;38.85;100656.19;5011161;28;20585;-77
2023/10/16 10:28:24;;;;;;;17.13;2.78;;;;;;;16.52;38.99;100635.34;5011130;28;20062;-73
2023/10/16 10:30:51;;;;;;;7.40;1.63;;;;;;;16.64;39.06;100652.91;5011047;28;20059;-73
2023/10/16 10:33:37;;;;;;;4.75;1.73;;;;;;;16.66;38.26;100667.72;5011064;28;20046;-72
2023/10/16 10:36:27;;;;;;;4.00;2.10;;;;;;;16.70;37.73;100662.53;5011076;28;20034;-73
2023/10/16 10:39:21;;;;;;;8.68;2.28;;;;;;;16.79;38.84;100665.28;4994528;28;20069;-74
2023/10/16 10:41:51;;;;;;;5.05;1.52;;;;;;;16.97;38.86;100657.78;5010994;28;20440;-72
2023/10/16 10:44:21;;;;;;;8.27;1.70;;;;;;;17.24;37.56;100648.53;5010829;28;20507;-77
2023/10/16 10:46:49;;;;;;;6.93;1.50;;;;;;;17.26;36.75;100628.56;5010944;28;20029;-74
2023/10/16 10:49:18;;;;;;;3.58;1.73;;;;;;;17.74;38.83;100646.50;4994393;28;20113;-72
2023/10/16 10:51:47;;;;;;;3.60;1.48;;;;;;;18.00;34.64;100641.56;5012796;28;20034;-72
2023/10/16 10:54:22;;;;;;;5.15;1.48;;;;;;;18.22;35.05;100634.78;5013290;28;20054;-73
2023/10/16 10:56:48;;;;;;;5.25;1.52;;;;;;;18.35;33.38;100632.25;5006274;28;20037;-71
2023/10/16 10:59:41;;;;;;;9.43;1.48;;;;;;;18.58;33.12;100633.31;5013171;28;20112;-74
2023/10/16 11:04:44;;;;;;;7.68;2.03;;;;;;;18.88;32.85;100631.72;5006092;28;20098;-73
2023/10/16 11:07:29;;;;;;;6.18;1.58;;;;;;;18.84;33.08;100595.97;5014117;28;20018;-72
2023/10/16 11:09:57;;;;;;;3.95;1.30;;;;;;;19.05;32.05;100624.00;5012962;28;20036;-73
2023/10/16 11:12:26;;;;;;;1.60;1.08;;;;;;;18.78;31.31;100629.06;5013026;28;20478;-72
2023/10/16 11:14:53;;;;;;;;;;;;;;;19.12;33.23;100624.91;5028824;28;20835;-73
2023/10/16 11:17:37;;;;;;;8.32;1.20;;;;;;;19.05;30.42;100624.00;5013002;28;19917;-73
2023/10/16 11:22:44;;;;;;;4.70;1.67;;;;;;;18.99;30.98;100630.94;5013074;28;20029;-71
2023/10/16 11:25:13;;;;;;;6.53;2.88;;;;;;;18.89;31.02;100594.25;5012921;28;20065;-73
2023/10/16 11:27:43;;;;;;;;;;;;;;;19.09;31.04;100624.91;5013148;28;20026;-71
2023/10/16 11:30:18;;;;;;;6.72;2.00;;;;;;;19.19;30.49;100625.78;5011600;28;20047;-75
2023/10/16 11:32:46;;;;;;;12.35;2.60;;;;;;;19.13;30.34;100595.25;5011805;28;20037;-73
2023/10/16 11:35:14;;;;;;;7.72;2.33;;;;;;;19.38;29.53;100632.84;5027547;28;20034;-74
2023/10/16 11:37:43;;;;;;;10.18;2.30;;;;;;;19.43;30.04;100629.34;5012599;28;20034;-74
2023/10/16 11:40:18;;;;;;;6.55;1.60;;;;;;;19.51;29.21;100623.28;5021661;28;20496;-75
2023/10/16 11:42:47;;;;;;;6.38;1.80;;;;;;;19.45;29.73;100622.41;5012102;28;20045;-74
2023/10/16 11:45:23;;;;;;;6.07;1.88;;;;;;;19.37;29.76;100619.75;5012401;28;20120;-72
2023/10/16 11:50:38;;;;;;;21.20;3.13;;;;;;;19.35;29.88;100617.16;5002059;28;20112;-72
2023/10/16 11:53:07;;;;;;;;;;;;;;;19.43;29.01;100619.78;5007880;28;20046;-72
2023/10/16 11:55:38;;;;;;;20.95;2.60;;;;;;;19.16;29.47;100600.47;4998248;28;19922;-73
2023/10/16 11:58:07;;;;;;;14.60;2.50;;;;;;;19.45;29.66;100646.84;4998167;28;20093;-73
2023/10/16 12:00:35;;;;;;;20.77;4.30;;;;;;;19.33;29.45;100626.72;4999613;28;20047;-75
2023/10/16 12:03:07;;;;;;;13.63;4.30;;;;;;;19.22;29.43;100634.53;5009467;28;20389;-76
2023/10/16 12:05:36;;;;;;;12.20;4.00;;;;;;;19.10;29.42;100639.72;4998147;28;20093;-74
2023/10/16 12:08:02;;;;;;;29.80;2.42;;;;;;;19.11;29.53;100638.84;5006647;28;20046;-73
2023/10/16 12:10:29;;;;;;;13.57;2.65;;;;;;;19.04;28.51;100642.28;5001644;28;20121;-72
2023/10/16 12:12:58;;;;;;;9.88;2.38;;;;;;;18.98;28.47;100640.53;4998019;28;20488;-73
2023/10/16 12:15:25;;;;;;;6.83;1.97;;;;;;;19.11;29.05;100653.69;4997882;28;20049;-75
2023/10/16 12:17:53;;;;;;;6.55;1.67;;;;;;;18.78;29.58;100614.25;4999224;28;20423;-72
2023/10/16 12:20:21;;;;;;;6.60;1.95;;;;;;;18.88;29.99;100626.50;5005731;28;20036;-72
2023/10/16 12:22:48;;;;;;;8.52;1.80;;;;;;;19.01;28.83;100656.25;5003918;28;20030;-72
2023/10/16 12:25:13;;;;;;;4.18;1.40;;;;;;;18.90;29.19;100650.97;4998555;28;20209;-75
2023/10/16 12:27:39;;;;;;;4.97;1.83;;;;;;;18.84;29.16;100663.09;4999618;28;20117;-71
2023/10/16 12:30:05;;;;;;;25.30;2.55;;;;;;;18.82;28.92;100665.69;5011561;28;20110;-73
2023/10/16 12:32:32;;;;;;;7.93;2.17;;;;;;;18.73;29.01;100613.34;5011376;28;20029;-74
2023/10/16 12:35:00;;;;;;;15.02;3.38;;;;;;;18.84;28.92;100663.97;5011118;28;20060;-76
2023/10/16 12:37:27;;;;;;;5.43;1.70;;;;;;;18.86;29.20;100677.91;5016416;28;20455;-73
2023/10/16 12:39:54;;;;;;;7.82;2.00;;;;;;;18.73;29.44;100673.50;5011407;28;20040;-74
2023/10/16 12:42:20;;;;;;;6.50;1.80;;;;;;;18.79;30.39;100659.56;5011177;28;20492;-73
2023/10/16 12:44:45;;;;;;;3.63;1.55;;;;;;;18.95;30.63;100671.03;5011345;28;20080;-73
2023/10/16 12:47:14;;;;;;;9.25;1.48;;;;;;;18.94;28.88;100662.34;5026109;28;20037;-72
2023/10/16 12:49:40;;;;;;;3.00;1.20;;;;;;;18.98;29.00;100660.56;5009543;28;20026;-74
2023/10/16 12:52:05;;;;;;;3.10;1.30;;;;;;;19.13;29.70;100672.88;5011046;28;20033;-73
2023/10/16 12:54:31;;;;;;;8.65;1.55;;;;;;;19.09;29.25;100679.84;5010952;28;20500;-76
2023/10/16 12:56:57;;;;;;;8.77;1.58;;;;;;;19.05;29.25;100676.34;5011193;28;20030;-77
2023/10/16 12:59:26;;;;;;;5.57;1.30;;;;;;;18.89;28.74;100674.44;5010903;28;20026;-73
2023/10/16 13:01:52;;;;;;;2.75;1.38;;;;;;;18.87;28.87;100682.28;5009575;28;20085;-74
2023/10/16 13:04:18;;;;;;;6.88;1.50;;;;;;;18.83;29.02;100677.03;5010807;28;20558;-72
2023/10/16 13:06:44;;;;;;;4.32;1.52;;;;;;;18.85;29.39;100689.25;5010429;28;20036;-72
2023/10/16 13:09:15;;;;;;;4.85;1.40;;;;;;;18.55;28.73;100635.88;5010686;28;20029;-72
2023/10/16 13:11:41;;;;;;;3.75;1.25;;;;;;;18.80;28.78;100679.63;5010674;28;20033;-72
2023/10/16 13:14:07;;;;;;;4.40;1.42;;;;;;;18.90;28.75;100694.50;5010924;28;20048;-76
2023/10/16 13:16:33;;;;;;;10.05;1.48;;;;;;;18.92;29.32;100688.47;5010226;28;20116;-74
2023/10/16 13:18:59;;;;;;;2.83;1.38;;;;;;;18.90;28.49;100692.81;5010102;28;20061;-74
2023/10/16 13:21:34;;;;;;;7.72;1.48;;;;;;;18.78;28.53;100692.72;5010682;28;20527;-72
2023/10/16 13:24:04;;;;;;;5.65;1.73;;;;;;;18.73;29.08;100676.97;5010719;28;20030;-74
2023/10/16 13:26:35;;;;;;;4.50;1.42;;;;;;;18.86;30.61;100698.00;5010591;28;20034;-75
2023/10/16 13:29:08;;;;;;;6.43;1.38;;;;;;;18.87;30.29;100687.53;5010219;28;20033;-75
2023/10/16 13:31:36;;;;;;;2.03;1.10;;;;;;;18.86;29.32;100685.78;5002650;28;20034;-74
2023/10/16 13:34:03;;;;;;;7.43;1.85;;;;;;;18.80;28.98;100685.72;5010793;28;20120;-72